DBP145 FPST-FNBJ
Flight info
| Callsign | DBP145 |
|---|---|
| Flight time | N/A |
| Altitude | 34000 |
| Route | DCT STM UA400 NATAR DCT |
| Aircraft | A320/M-SDE3FGHIRWY/LB1 |
Departure
| Time | N/A |
|---|---|
| Airport | São Tomé International Airport (FPST) |
Arrival
| Time | 2026-04-25 15:29 |
|---|---|
| Airport | Dr. Antonio Agostinho Neto International Airport (FNBJ) |
| Time | Latitude | Longitude | Altitude | Speed | Heading |
|---|---|---|---|---|---|
| 2026-04-25 15:05 | -7.68947 | 12.38828 | 34529 ft | 456 kts | 148° |
| 2026-04-25 15:05 | -7.71725 | 12.40361 | 33730 ft | 456 kts | 148° |
| 2026-04-25 15:05 | -7.74487 | 12.41883 | 32936 ft | 456 kts | 148° |
| 2026-04-25 15:06 | -7.80077 | 12.44938 | 31441 ft | 455 kts | 149° |
| 2026-04-25 15:06 | -7.82866 | 12.46437 | 30767 ft | 453 kts | 149° |
| 2026-04-25 15:06 | -7.85615 | 12.47911 | 30355 ft | 444 kts | 149° |
| 2026-04-25 15:06 | -7.88333 | 12.49370 | 29958 ft | 440 kts | 149° |
| 2026-04-25 15:07 | -7.91035 | 12.50825 | 29548 ft | 436 kts | 149° |
| 2026-04-25 15:07 | -7.93708 | 12.52267 | 29125 ft | 432 kts | 149° |
| 2026-04-25 15:07 | -7.96339 | 12.53686 | 28696 ft | 428 kts | 149° |
| 2026-04-25 15:07 | -7.98962 | 12.55101 | 28277 ft | 424 kts | 149° |
| 2026-04-25 15:08 | -8.01553 | 12.56500 | 27827 ft | 420 kts | 149° |
| 2026-04-25 15:08 | -8.04122 | 12.57886 | 27342 ft | 417 kts | 149° |
| 2026-04-25 15:08 | -8.06673 | 12.59262 | 26824 ft | 413 kts | 149° |
| 2026-04-25 15:08 | -8.09182 | 12.60616 | 26338 ft | 408 kts | 149° |
| 2026-04-25 15:09 | -8.11679 | 12.61965 | 25834 ft | 404 kts | 149° |
| 2026-04-25 15:09 | -8.14167 | 12.63309 | 25306 ft | 401 kts | 149° |
| 2026-04-25 15:09 | -8.19054 | 12.65949 | 24260 ft | 396 kts | 149° |
| 2026-04-25 15:10 | -8.21471 | 12.67256 | 23732 ft | 394 kts | 149° |
| 2026-04-25 15:10 | -8.23886 | 12.68562 | 23215 ft | 392 kts | 149° |
| 2026-04-25 15:10 | -8.28670 | 12.71151 | 22185 ft | 388 kts | 149° |
| 2026-04-25 15:11 | -8.31040 | 12.72433 | 21686 ft | 387 kts | 149° |
| 2026-04-25 15:11 | -8.33406 | 12.73713 | 21192 ft | 385 kts | 149° |
| 2026-04-25 15:11 | -8.35768 | 12.74990 | 20707 ft | 383 kts | 149° |
| 2026-04-25 15:12 | -8.40446 | 12.77520 | 19723 ft | 379 kts | 149° |
| 2026-04-25 15:12 | -8.42772 | 12.78779 | 19233 ft | 378 kts | 149° |
| 2026-04-25 15:12 | -8.45073 | 12.80024 | 18749 ft | 376 kts | 149° |
| 2026-04-25 15:12 | -8.45862 | 12.80451 | 18579 ft | 376 kts | 149° |
| 2026-04-25 15:13 | -8.49694 | 12.82527 | 17754 ft | 374 kts | 149° |
| 2026-04-25 15:13 | -8.54263 | 12.85000 | 16774 ft | 371 kts | 149° |
| 2026-04-25 15:13 | -8.56546 | 12.86237 | 16274 ft | 370 kts | 149° |
| 2026-04-25 15:14 | -8.58800 | 12.87460 | 15778 ft | 369 kts | 149° |
| 2026-04-25 15:14 | -8.61093 | 12.88703 | 15276 ft | 368 kts | 149° |
| 2026-04-25 15:14 | -8.63347 | 12.89925 | 14785 ft | 367 kts | 149° |
| 2026-04-25 15:14 | -8.65599 | 12.91145 | 14295 ft | 366 kts | 150° |
| 2026-04-25 15:15 | -8.67828 | 12.92353 | 13812 ft | 364 kts | 150° |
| 2026-04-25 15:15 | -8.70043 | 12.93555 | 13330 ft | 362 kts | 150° |
| 2026-04-25 15:15 | -8.72262 | 12.94758 | 12850 ft | 360 kts | 150° |
| 2026-04-25 15:15 | -8.74457 | 12.95946 | 12384 ft | 357 kts | 150° |
| 2026-04-25 15:16 | -8.76658 | 12.97138 | 11916 ft | 353 kts | 150° |
| 2026-04-25 15:16 | -8.78793 | 12.98294 | 11470 ft | 350 kts | 150° |
| 2026-04-25 15:16 | -8.83040 | 13.00596 | 10791 ft | 335 kts | 150° |
| 2026-04-25 15:17 | -8.86987 | 13.02735 | 10515 ft | 309 kts | 149° |
| 2026-04-25 15:17 | -8.88856 | 13.03750 | 10247 ft | 303 kts | 149° |
| 2026-04-25 15:17 | -8.90710 | 13.04759 | 9864 ft | 301 kts | 149° |
| 2026-04-25 15:18 | -8.92552 | 13.05760 | 9496 ft | 298 kts | 149° |
| 2026-04-25 15:18 | -8.96187 | 13.07734 | 8787 ft | 293 kts | 149° |
| 2026-04-25 15:18 | -8.97987 | 13.08711 | 8433 ft | 290 kts | 149° |
| 2026-04-25 15:19 | -8.99745 | 13.09668 | 8085 ft | 288 kts | 149° |
| 2026-04-25 15:19 | -9.00930 | 13.10313 | 7849 ft | 286 kts | 149° |
| 2026-04-25 15:19 | -9.03262 | 13.11580 | 7379 ft | 284 kts | 149° |
| 2026-04-25 15:19 | -9.05010 | 13.12528 | 7025 ft | 282 kts | 149° |
| 2026-04-25 15:20 | -9.06737 | 13.13467 | 6679 ft | 280 kts | 149° |
| 2026-04-25 15:20 | -9.08438 | 13.14394 | 6330 ft | 279 kts | 149° |
| 2026-04-25 15:20 | -9.10160 | 13.15328 | 5983 ft | 277 kts | 149° |
| 2026-04-25 15:20 | -9.11855 | 13.16246 | 5648 ft | 275 kts | 149° |
| 2026-04-25 15:21 | -9.13546 | 13.17165 | 5299 ft | 274 kts | 150° |
| 2026-04-25 15:21 | -9.15231 | 13.18078 | 4955 ft | 272 kts | 150° |
| 2026-04-25 15:21 | -9.16885 | 13.18975 | 4612 ft | 270 kts | 150° |
| 2026-04-25 15:21 | -9.18545 | 13.19876 | 4277 ft | 268 kts | 150° |
| 2026-04-25 15:22 | -9.20185 | 13.20765 | 3948 ft | 267 kts | 150° |
| 2026-04-25 15:22 | -9.21813 | 13.21649 | 3619 ft | 265 kts | 150° |
| 2026-04-25 15:22 | -9.23316 | 13.22718 | 3246 ft | 262 kts | 128° |
| 2026-04-25 15:22 | -9.24045 | 13.24363 | 2980 ft | 259 kts | 97° |
| 2026-04-25 15:23 | -9.23867 | 13.26153 | 2949 ft | 261 kts | 70° |
| 2026-04-25 15:23 | -9.22890 | 13.27735 | 2953 ft | 263 kts | 53° |
| 2026-04-25 15:23 | -9.21773 | 13.29192 | 2949 ft | 264 kts | 53° |
| 2026-04-25 15:23 | -9.20656 | 13.30677 | 2951 ft | 264 kts | 54° |
| 2026-04-25 15:24 | -9.19560 | 13.32148 | 2949 ft | 259 kts | 54° |
| 2026-04-25 15:24 | -9.18498 | 13.33576 | 2943 ft | 243 kts | 54° |
| 2026-04-25 15:24 | -9.17525 | 13.34889 | 2941 ft | 228 kts | 54° |
| 2026-04-25 15:24 | -9.16894 | 13.35741 | 2937 ft | 218 kts | 54° |
| 2026-04-25 15:25 | -9.15731 | 13.37310 | 2938 ft | 203 kts | 54° |
| 2026-04-25 15:25 | -9.14893 | 13.38454 | 2901 ft | 204 kts | 54° |
| 2026-04-25 15:25 | -9.14048 | 13.39604 | 2685 ft | 203 kts | 54° |
| 2026-04-25 15:25 | -9.13207 | 13.40738 | 2512 ft | 195 kts | 54° |
| 2026-04-25 15:26 | -9.12406 | 13.41817 | 2235 ft | 192 kts | 53° |
| 2026-04-25 15:26 | -9.11607 | 13.42893 | 1965 ft | 187 kts | 53° |
| 2026-04-25 15:26 | -9.10849 | 13.43914 | 1707 ft | 176 kts | 52° |
| 2026-04-25 15:26 | -9.10139 | 13.44871 | 1497 ft | 162 kts | 52° |
| 2026-04-25 15:27 | -9.09499 | 13.45732 | 1294 ft | 148 kts | 52° |
| 2026-04-25 15:27 | -9.08896 | 13.46544 | 1106 ft | 141 kts | 51° |
| 2026-04-25 15:27 | -9.07709 | 13.48142 | 768 ft | 142 kts | 52° |
| 2026-04-25 15:28 | -9.07117 | 13.48940 | 577 ft | 141 kts | 51° |
| 2026-04-25 15:28 | -9.06553 | 13.49694 | 556 ft | 117 kts | 52° |
| 2026-04-25 15:28 | -9.06137 | 13.50254 | 564 ft | 82 kts | 53° |
| 2026-04-25 15:28 | -9.05830 | 13.50665 | 561 ft | 67 kts | 51° |
| 2026-04-25 15:29 | -9.05668 | 13.50907 | 560 ft | 24 kts | 43° |